Time;durP1;ratioP1;P1;durP2;ratioP2;P2;SDS_P1;SDS_P2;PMS_P1;PMS_P2;Temp;Humidity;BMP_temperature;BMP_pressure;BME280_temperature;BME280_humidity;BME280_pressure;Samples;Min_cycle;Max_cycle;Signal;HPM_P1;HPM_P2
2022/11/25 00:01:07;;;;;;;13.75;2.78;;;9.50;99.90;;;;;;4989211;28;20481;-37
2022/11/25 00:03:34;;;;;;;9.95;1.92;;;9.60;99.90;;;;;;4989072;28;20027;-39
2022/11/25 00:06:16;;;;;;;12.68;2.30;;;9.60;99.90;;;;;;4988414;28;20033;-40
2022/11/25 00:08:44;;;;;;;5.75;1.40;;;9.60;99.90;;;;;;4997113;28;20041;-40
2022/11/25 00:11:10;;;;;;;14.32;2.67;;;9.60;99.90;;;;;;4998390;28;20458;-39
2022/11/25 00:13:37;;;;;;;7.32;1.50;;;9.60;99.90;;;;;;4990389;28;20022;-38
2022/11/25 00:16:04;;;;;;;4.80;1.40;;;9.60;99.90;;;;;;4992899;28;20105;-37
2022/11/25 00:18:30;;;;;;;9.70;2.67;;;9.60;99.90;;;;;;4992265;28;20069;-38
2022/11/25 00:20:57;;;;;;;13.02;2.85;;;9.60;99.90;;;;;;4993261;28;20022;-38
2022/11/25 00:23:23;;;;;;;11.68;2.42;;;9.60;99.90;;;;;;4991090;28;20030;-37
2022/11/25 00:25:48;;;;;;;9.18;1.98;;;9.60;99.90;;;;;;4993840;28;20038;-36
2022/11/25 00:28:14;;;;;;;15.45;2.70;;;9.60;99.90;;;;;;4992843;28;20030;-36
2022/11/25 00:30:40;;;;;;;15.35;1.80;;;9.60;99.90;;;;;;4994278;28;20025;-37
2022/11/25 00:33:05;;;;;;;15.43;2.08;;;9.60;99.90;;;;;;4993955;28;20030;-37
2022/11/25 00:35:33;;;;;;;14.38;2.30;;;9.60;99.90;;;;;;4994599;28;20034;-37
2022/11/25 00:37:59;;;;;;;;;;;9.60;99.90;;;;;;4977653;28;20022;-38
2022/11/25 00:40:25;;;;;;;16.02;1.95;;;9.60;99.90;;;;;;4997942;28;19956;-41
2022/11/25 00:45:55;;;;;;;11.95;2.85;;;9.60;99.90;;;;;;4946502;28;20042;-39
2022/11/25 00:48:20;;;;;;;16.25;3.13;;;9.50;99.90;;;;;;4949713;28;20114;-37
2022/11/25 00:50:46;;;;;;;13.88;1.90;;;9.50;99.90;;;;;;4969614;28;20041;-36
2022/11/25 00:53:11;;;;;;;5.20;1.50;;;9.50;99.90;;;;;;4983509;28;20485;-37
2022/11/25 00:56:11;;;;;;;13.10;2.65;;;9.60;99.90;;;;;;5000484;28;20026;-37
2022/11/25 00:58:22;;;;;;;11.90;2.60;;;9.50;99.90;;;;;;4996981;28;20516;-37
2022/11/25 01:00:48;;;;;;;13.00;1.95;;;9.50;99.90;;;;;;5002976;28;20053;-37
2022/11/25 01:03:14;;;;;;;5.43;2.15;;;9.50;99.90;;;;;;4987519;28;20375;-39
2022/11/25 01:05:39;;;;;;;11.95;3.22;;;9.50;99.90;;;;;;4996119;28;20030;-39
2022/11/25 01:08:05;;;;;;;21.60;2.05;;;9.50;99.90;;;;;;4994127;28;20026;-38
2022/11/25 01:10:30;;;;;;;14.50;2.72;;;9.50;99.90;;;;;;4991505;28;20037;-39
2022/11/25 01:12:56;;;;;;;6.55;1.77;;;9.50;99.90;;;;;;4996249;28;20022;-32
2022/11/25 01:15:21;;;;;;;9.38;1.95;;;9.60;99.90;;;;;;4993487;28;20030;-38
2022/11/25 01:17:47;;;;;;;17.77;2.65;;;9.50;99.90;;;;;;4993894;28;20077;-38
2022/11/25 01:20:15;;;;;;;11.98;3.17;;;9.50;99.90;;;;;;4993490;28;20543;-37
2022/11/25 01:22:41;;;;;;;7.53;1.33;;;9.60;99.90;;;;;;4994002;28;20030;-37
2022/11/25 01:25:06;;;;;;;14.43;2.05;;;9.50;99.90;;;;;;5000867;28;20554;-37
2022/11/25 01:27:32;;;;;;;9.70;1.80;;;9.50;99.90;;;;;;5002577;28;20498;-59
2022/11/25 01:29:58;;;;;;;14.68;2.58;;;9.60;99.90;;;;;;5002503;28;20026;-38
2022/11/25 01:32:23;;;;;;;16.58;2.65;;;9.50;99.90;;;;;;4976290;28;20474;-38
2022/11/25 01:34:49;;;;;;;14.82;1.98;;;9.60;99.90;;;;;;4993580;28;20501;-38
2022/11/25 01:37:14;;;;;;;15.13;2.25;;;9.60;99.90;;;;;;4993504;28;20161;-39
2022/11/25 01:39:40;;;;;;;16.77;2.72;;;9.70;99.90;;;;;;4992979;28;20367;-38
2022/11/25 01:42:06;;;;;;;11.52;2.72;;;9.60;99.90;;;;;;4990935;28;20073;-37
2022/11/25 01:44:32;;;;;;;12.05;2.45;;;9.60;99.90;;;;;;4993203;28;20041;-38
2022/11/25 01:47:09;;;;;;;7.97;2.45;;;9.60;99.90;;;;;;4992000;28;20034;-38
2022/11/25 01:49:56;;;;;;;14.18;1.75;;;9.60;99.90;;;;;;4991115;28;20097;-37
2022/11/25 01:52:35;;;;;;;10.93;2.40;;;9.60;99.90;;;;;;4993255;28;20470;-39
2022/11/25 01:55:09;;;;;;;5.95;1.80;;;9.60;99.90;;;;;;4992285;28;20332;-33
2022/11/25 01:57:41;;;;;;;15.38;2.83;;;9.60;99.90;;;;;;4977066;28;20027;-37
2022/11/25 02:00:07;;;;;;;13.65;2.88;;;9.60;99.90;;;;;;4975416;28;20035;-38
2022/11/25 02:02:33;;;;;;;17.70;2.55;;;9.60;99.90;;;;;;4992295;28;20026;-37
2022/11/25 02:05:02;;;;;;;19.58;2.60;;;9.60;99.90;;;;;;4961687;28;20046;-38
2022/11/25 02:07:32;;;;;;;12.98;2.05;;;9.60;99.90;;;;;;4990923;28;20038;-37
2022/11/25 02:10:00;;;;;;;9.98;2.42;;;9.70;99.90;;;;;;4992345;28;20035;-38
2022/11/25 02:12:27;;;;;;;12.25;2.70;;;9.70;99.90;;;;;;4992443;28;20030;-37
2022/11/25 02:14:55;;;;;;;13.18;3.08;;;9.70;99.90;;;;;;4991151;28;20034;-37
2022/11/25 02:17:21;;;;;;;8.95;1.85;;;9.70;99.90;;;;;;4992235;28;20243;-37
2022/11/25 02:20:09;;;;;;;13.98;2.22;;;9.60;99.90;;;;;;4992746;28;20453;-37
2022/11/25 02:22:40;;;;;;;17.13;2.95;;;9.60;99.90;;;;;;4992337;28;20030;-37
2022/11/25 02:25:21;;;;;;;16.60;2.55;;;9.60;99.90;;;;;;4972379;28;20039;-36
2022/11/25 02:28:09;;;;;;;8.32;2.33;;;9.60;99.90;;;;;;4974032;28;20243;-34
2022/11/25 02:30:35;;;;;;;16.83;2.05;;;9.70;99.90;;;;;;4991516;28;20034;-31
2022/11/25 02:33:01;;;;;;;13.85;3.42;;;9.60;99.90;;;;;;4995679;28;20089;-32
2022/11/25 02:35:31;;;;;;;12.60;3.17;;;9.70;99.90;;;;;;4995962;28;20077;-33
2022/11/25 02:38:29;;;;;;;15.93;3.15;;;9.60;99.90;;;;;;4996465;28;20022;-31
2022/11/25 02:41:04;;;;;;;8.05;2.28;;;9.70;99.90;;;;;;4995045;28;20478;-37
2022/11/25 02:43:30;;;;;;;7.25;2.15;;;9.70;99.90;;;;;;4992477;28;20042;-39
2022/11/25 02:45:59;;;;;;;9.32;2.10;;;9.60;99.90;;;;;;4994843;28;20398;-31
2022/11/25 02:48:27;;;;;;;12.48;2.10;;;9.70;99.90;;;;;;4995593;28;20478;-31
2022/11/25 02:50:53;;;;;;;15.25;2.00;;;9.60;99.90;;;;;;4996358;28;20530;-31
2022/11/25 02:53:19;;;;;;;20.48;2.70;;;9.60;99.90;;;;;;4994845;28;20054;-34
2022/11/25 02:55:44;;;;;;;6.85;1.63;;;9.70;99.90;;;;;;4993900;28;20060;-38
2022/11/25 02:58:10;;;;;;;13.88;2.47;;;9.70;99.90;;;;;;4995177;28;20446;-32
2022/11/25 03:00:36;;;;;;;14.00;2.10;;;9.70;99.90;;;;;;4994803;28;20015;-31
2022/11/25 03:03:02;;;;;;;13.10;2.00;;;9.70;99.90;;;;;;4992068;28;20529;-43
2022/11/25 03:05:27;;;;;;;7.20;1.85;;;9.60;99.90;;;;;;4994982;28;20089;-29
2022/11/25 03:07:53;;;;;;;19.33;2.05;;;9.60;99.90;;;;;;4995593;28;20026;-33
2022/11/25 03:10:18;;;;;;;10.88;2.28;;;9.60;99.90;;;;;;4995199;28;20026;-31
2022/11/25 03:12:44;;;;;;;12.10;1.73;;;9.60;99.90;;;;;;4994247;28;20034;-29
2022/11/25 03:15:10;;;;;;;14.77;2.22;;;9.60;99.90;;;;;;4994676;28;20109;-29
2022/11/25 03:17:36;;;;;;;11.27;2.25;;;9.60;99.90;;;;;;4995229;28;20114;-28
2022/11/25 03:20:03;;;;;;;10.65;1.98;;;9.60;99.90;;;;;;4995102;28;20458;-32
2022/11/25 03:22:28;;;;;;;9.45;2.28;;;9.60;99.90;;;;;;4994923;28;20037;-33
2022/11/25 03:24:54;;;;;;;9.27;2.85;;;9.60;99.90;;;;;;4995305;28;20022;-32
2022/11/25 03:27:19;;;;;;;16.17;2.90;;;9.60;99.90;;;;;;4994280;28;20093;-30
2022/11/25 03:29:48;;;;;;;14.48;2.55;;;9.60;99.90;;;;;;4995084;28;20494;-30
2022/11/25 03:32:14;;;;;;;14.57;2.60;;;9.60;99.90;;;;;;4995121;28;20022;-31
2022/11/25 03:34:40;;;;;;;9.85;2.45;;;9.70;99.90;;;;;;4994896;28;20038;-48
2022/11/25 03:37:05;;;;;;;12.93;2.85;;;9.60;99.90;;;;;;4994543;28;20034;-37
2022/11/25 03:39:31;;;;;;;10.05;2.38;;;9.60;99.90;;;;;;4979530;28;20037;-36
2022/11/25 03:41:57;;;;;;;14.60;2.03;;;9.60;99.90;;;;;;4995276;28;20474;-37
2022/11/25 03:44:22;;;;;;;11.80;2.05;;;9.60;99.90;;;;;;4993682;28;20019;-38
2022/11/25 03:46:48;;;;;;;16.90;2.15;;;9.60;99.90;;;;;;4994798;28;20474;-37
2022/11/25 03:49:14;;;;;;;7.13;1.70;;;9.50;99.90;;;;;;4994491;28;20022;-38
2022/11/25 03:51:39;;;;;;;13.43;2.13;;;9.50;99.90;;;;;;4994750;28;20513;-38
2022/11/25 03:54:05;;;;;;;13.77;2.05;;;9.50;99.90;;;;;;4994500;28;20029;-38
2022/11/25 03:56:31;;;;;;;8.77;1.98;;;9.50;99.90;;;;;;4994637;28;20030;-34
2022/11/25 03:58:57;;;;;;;6.32;1.85;;;9.60;99.90;;;;;;4974638;28;20510;-34
2022/11/25 04:01:22;;;;;;;5.85;1.42;;;9.60;99.90;;;;;;4992396;28;20062;-36
2022/11/25 04:03:48;;;;;;;7.22;2.05;;;9.50;99.90;;;;;;4992616;28;20466;-33
2022/11/25 04:06:14;;;;;;;6.32;1.50;;;9.50;99.90;;;;;;4993798;28;20034;-29
2022/11/25 04:08:40;;;;;;;7.75;1.63;;;9.50;99.90;;;;;;4991184;28;20034;-33
2022/11/25 04:11:09;;;;;;;10.00;1.58;;;9.50;99.90;;;;;;4992705;28;20037;-30
2022/11/25 04:13:34;;;;;;;8.45;1.23;;;9.50;99.90;;;;;;4993217;28;20474;-32
2022/11/25 04:16:00;;;;;;;12.45;1.02;;;9.50;99.90;;;;;;4993433;28;20022;-29
2022/11/25 04:18:25;;;;;;;12.65;1.33;;;9.50;99.90;;;;;;4992130;28;20053;-28
2022/11/25 04:20:51;;;;;;;1.58;1.00;;;9.40;99.90;;;;;;4991879;28;20019;-34
2022/11/25 04:23:17;;;;;;;13.63;1.95;;;9.40;99.90;;;;;;4992530;28;20026;-31
2022/11/25 04:25:42;;;;;;;1.70;0.63;;;9.40;99.90;;;;;;4993155;28;20030;-32
2022/11/25 04:28:08;;;;;;;2.10;0.90;;;9.40;99.90;;;;;;4992042;28;20033;-31
2022/11/25 04:30:34;;;;;;;4.78;0.70;;;9.40;99.90;;;;;;4992214;28;20037;-29
2022/11/25 04:33:00;;;;;;;4.72;0.95;;;9.40;99.90;;;;;;4993282;28;20512;-28
2022/11/25 04:35:25;;;;;;;8.40;1.23;;;9.30;99.90;;;;;;4989550;28;20552;-30
2022/11/25 04:37:51;;;;;;;8.55;0.90;;;9.20;99.90;;;;;;4993295;28;20022;-34
2022/11/25 04:40:17;;;;;;;4.15;0.90;;;9.20;99.90;;;;;;4991093;28;20040;-28
2022/11/25 04:42:42;;;;;;;10.23;1.40;;;9.20;99.90;;;;;;4992208;28;20479;-34
2022/11/25 04:45:16;;;;;;;6.03;0.98;;;9.10;99.90;;;;;;4991845;28;20085;-29
2022/11/25 04:47:43;;;;;;;6.53;0.82;;;9.10;99.90;;;;;;4992888;28;20040;-35
2022/11/25 04:50:14;;;;;;;2.38;0.82;;;9.00;99.90;;;;;;4992220;28;20030;-31
2022/11/25 04:52:39;;;;;;;4.28;1.02;;;9.00;99.90;;;;;;4975705;28;20045;-31
2022/11/25 04:55:05;;;;;;;11.63;1.95;;;9.00;99.90;;;;;;4991318;28;20390;-32
2022/11/25 04:57:31;;;;;;;1.77;0.77;;;9.00;99.90;;;;;;4992050;28;20395;-29
2022/11/25 04:59:56;;;;;;;1.10;0.90;;;9.00;99.90;;;;;;4992557;28;20034;-30
2022/11/25 05:02:24;;;;;;;2.53;0.73;;;9.00;99.90;;;;;;4992103;28;20022;-34
2022/11/25 05:04:52;;;;;;;2.70;1.00;;;8.90;99.90;;;;;;4992044;28;20482;-31
2022/11/25 05:07:20;;;;;;;1.00;0.68;;;8.90;99.90;;;;;;4990875;28;20493;-29
2022/11/25 05:09:46;;;;;;;;;;;8.90;99.90;;;;;;4992323;28;20026;-29
2022/11/25 05:12:15;;;;;;;5.80;0.85;;;8.90;99.90;;;;;;4991372;28;19916;-34
2022/11/25 05:14:40;;;;;;;3.90;0.90;;;8.90;99.90;;;;;;4992621;28;20030;-36
2022/11/25 05:17:06;;;;;;;8.38;0.73;;;8.90;99.90;;;;;;4990013;28;20035;-30
2022/11/25 05:19:34;;;;;;;2.72;0.70;;;8.90;99.90;;;;;;4989729;28;20022;-30
2022/11/25 05:22:00;;;;;;;5.65;1.17;;;8.80;99.90;;;;;;4992663;28;20422;-30
2022/11/25 05:24:26;;;;;;;5.97;1.38;;;8.80;99.90;;;;;;4993115;28;20041;-35
2022/11/25 05:26:51;;;;;;;5.68;0.90;;;8.80;99.90;;;;;;4991595;28;20034;-30
2022/11/25 05:29:17;;;;;;;2.67;0.70;;;8.80;99.90;;;;;;4992162;28;20029;-35
2022/11/25 05:31:43;;;;;;;0.73;0.60;;;8.80;99.90;;;;;;4992675;28;20382;-30
2022/11/25 05:34:08;;;;;;;5.18;0.70;;;8.80;99.90;;;;;;4990726;28;20030;-30
2022/11/25 05:36:34;;;;;;;4.47;0.75;;;8.80;99.90;;;;;;4992961;28;20030;-29
2022/11/25 05:39:02;;;;;;;2.90;1.00;;;8.80;99.90;;;;;;4991262;28;20027;-29
2022/11/25 05:41:28;;;;;;;4.07;0.75;;;8.80;99.90;;;;;;4992662;28;20093;-32
2022/11/25 05:43:54;;;;;;;2.50;0.77;;;8.70;99.90;;;;;;4993007;28;20022;-33
2022/11/25 05:46:20;;;;;;;2.67;1.50;;;8.70;99.90;;;;;;4968593;28;20050;-30
2022/11/25 05:48:45;;;;;;;2.97;0.93;;;8.70;99.90;;;;;;4992971;28;20117;-34
2022/11/25 05:51:29;;;;;;;2.92;0.80;;;8.70;99.90;;;;;;4991488;28;20038;-35
2022/11/25 05:53:56;;;;;;;1.17;0.98;;;8.70;99.90;;;;;;4992678;28;20033;-30
2022/11/25 05:56:22;;;;;;;1.13;0.93;;;8.70;99.90;;;;;;4987694;28;20026;-36
2022/11/25 05:58:48;;;;;;;2.13;1.15;;;8.70;99.90;;;;;;4994486;28;20030;-32
2022/11/25 06:01:15;;;;;;;2.47;0.73;;;8.80;99.90;;;;;;4996195;28;20026;-31
2022/11/25 06:03:42;;;;;;;6.43;1.08;;;8.70;99.90;;;;;;4998428;28;20492;-39
2022/11/25 06:06:08;;;;;;;5.00;1.30;;;8.70;99.90;;;;;;4990775;28;20493;-34
2022/11/25 06:08:35;;;;;;;2.47;1.13;;;8.70;99.90;;;;;;4995870;28;20031;-34
2022/11/25 06:11:10;;;;;;;3.45;1.55;;;8.70;99.90;;;;;;4991783;28;20518;-31
2022/11/25 06:13:36;;;;;;;3.58;1.25;;;8.70;99.90;;;;;;4999340;28;20171;-36
2022/11/25 06:16:10;;;;;;;1.58;1.05;;;8.70;99.90;;;;;;4994915;28;20121;-32
2022/11/25 06:18:36;;;;;;;7.55;1.38;;;8.70;99.90;;;;;;5002261;28;20518;-32
2022/11/25 06:21:03;;;;;;;6.85;1.60;;;8.70;99.90;;;;;;5011152;28;20018;-31
2022/11/25 06:23:28;;;;;;;7.63;1.73;;;8.70;99.90;;;;;;4998650;28;20521;-31
2022/11/25 06:25:54;;;;;;;2.58;1.80;;;8.70;99.90;;;;;;4994248;28;20330;-30
2022/11/25 06:28:20;;;;;;;2.83;1.48;;;8.70;99.90;;;;;;4992511;28;20096;-31
2022/11/25 06:30:45;;;;;;;3.80;1.17;;;8.70;99.90;;;;;;4997572;28;20431;-33
2022/11/25 06:33:11;;;;;;;3.05;1.77;;;8.60;99.90;;;;;;4996209;28;20486;-29
2022/11/25 06:35:37;;;;;;;2.65;1.52;;;8.60;99.90;;;;;;4996117;28;20110;-32
2022/11/25 06:38:02;;;;;;;3.30;1.70;;;8.60;99.90;;;;;;4991231;28;20034;-32
2022/11/25 06:40:28;;;;;;;1.63;1.30;;;8.60;99.90;;;;;;4993628;28;20549;-34
2022/11/25 06:42:54;;;;;;;4.38;1.73;;;8.60;99.90;;;;;;4994915;28;20019;-32
2022/11/25 06:45:19;;;;;;;4.63;1.90;;;8.60;99.90;;;;;;5000974;28;20034;-32
2022/11/25 06:47:45;;;;;;;7.80;1.88;;;8.60;99.90;;;;;;4996160;28;20104;-39
2022/11/25 06:50:10;;;;;;;7.90;2.03;;;8.50;99.90;;;;;;4993913;28;20057;-51
2022/11/25 06:52:36;;;;;;;7.28;2.30;;;8.60;99.90;;;;;;4995904;28;20029;-39
2022/11/25 06:55:03;;;;;;;5.78;2.05;;;8.50;99.90;;;;;;5001744;28;20038;-40
2022/11/25 06:57:28;;;;;;;14.23;2.25;;;8.50;99.90;;;;;;4999304;28;20076;-41
2022/11/25 06:59:54;;;;;;;6.30;2.47;;;8.40;99.90;;;;;;4996072;28;20051;-42
2022/11/25 07:02:19;;;;;;;5.93;1.73;;;8.40;99.90;;;;;;4994405;28;20103;-41
2022/11/25 07:04:45;;;;;;;10.35;3.08;;;8.40;99.90;;;;;;4994200;28;20076;-40
2022/11/25 07:07:11;;;;;;;3.30;2.17;;;8.40;99.90;;;;;;4995100;28;20030;-38
2022/11/25 07:09:36;;;;;;;8.35;2.70;;;8.40;99.90;;;;;;5002883;28;20029;-40
2022/11/25 07:12:04;;;;;;;4.13;2.08;;;8.30;99.90;;;;;;4974818;28;20498;-39
2022/11/25 07:14:30;;;;;;;6.50;3.03;;;8.30;99.90;;;;;;4992398;28;20053;-40
2022/11/25 07:16:55;;;;;;;3.28;2.05;;;8.30;99.90;;;;;;4974391;28;20088;-40
2022/11/25 07:19:21;;;;;;;5.85;2.45;;;8.30;99.90;;;;;;4993894;28;20080;-39
2022/11/25 07:21:47;;;;;;;5.20;2.15;;;8.30;99.90;;;;;;4994819;28;20462;-38
2022/11/25 07:24:14;;;;;;;8.18;1.90;;;8.30;99.90;;;;;;4994563;28;20034;-39
2022/11/25 07:26:41;;;;;;;1.75;1.63;;;8.30;99.90;;;;;;4995133;28;20034;-39
2022/11/25 07:29:10;;;;;;;9.10;2.50;;;8.30;99.90;;;;;;4993825;28;20030;-41
2022/11/25 07:31:41;;;;;;;7.03;2.60;;;8.30;99.90;;;;;;4996194;28;20386;-39
2022/11/25 07:34:16;;;;;;;5.30;2.63;;;8.30;99.90;;;;;;4994040;28;20045;-39
2022/11/25 07:36:42;;;;;;;8.02;2.60;;;8.30;99.90;;;;;;4996133;28;20384;-39
2022/11/25 07:39:20;;;;;;;10.52;2.65;;;8.30;99.90;;;;;;4976745;28;20042;-61
2022/11/25 07:41:50;;;;;;;6.43;2.60;;;8.30;99.90;;;;;;4995504;28;20470;-50
2022/11/25 07:44:16;;;;;;;5.38;2.28;;;8.30;99.90;;;;;;4995938;28;20466;-37
2022/11/25 07:46:44;;;;;;;8.25;2.45;;;8.30;99.90;;;;;;4989942;28;20088;-40
2022/11/25 07:49:12;;;;;;;4.93;2.58;;;8.30;99.90;;;;;;4994537;28;20425;-40
2022/11/25 07:52:03;;;;;;;11.25;2.45;;;8.30;99.90;;;;;;4994550;28;20035;-40
2022/11/25 07:54:30;;;;;;;4.05;2.58;;;8.40;99.90;;;;;;4994782;28;20359;-39
2022/11/25 07:56:56;;;;;;;4.10;2.15;;;8.40;99.90;;;;;;4994563;28;20018;-40
2022/11/25 07:59:22;;;;;;;7.97;2.67;;;8.40;99.90;;;;;;4993806;28;20022;-40
2022/11/25 08:01:50;;;;;;;12.13;3.05;;;8.40;99.90;;;;;;4993805;28;20537;-39
2022/11/25 08:04:15;;;;;;;10.53;3.27;;;8.40;99.90;;;;;;4989777;28;20478;-30
2022/11/25 08:06:43;;;;;;;7.55;2.88;;;8.50;99.90;;;;;;4991485;28;20042;-35
2022/11/25 08:09:11;;;;;;;9.63;2.85;;;8.50;99.90;;;;;;4990410;28;20497;-31
2022/11/25 08:11:37;;;;;;;;;;;8.50;99.90;;;;;;4994869;28;20087;-33
2022/11/25 08:14:03;;;;;;;9.95;2.70;;;8.60;99.90;;;;;;4989571;28;20366;-33
2022/11/25 08:16:32;;;;;;;17.65;2.50;;;8.60;99.90;;;;;;4987929;28;20030;-39
2022/11/25 08:19:00;;;;;;;11.35;3.45;;;8.60;99.90;;;;;;5002523;28;20104;-41
2022/11/25 08:21:27;;;;;;;11.07;2.65;;;8.60;99.90;;;;;;4993809;28;20026;-40
2022/11/25 08:23:53;;;;;;;3.20;2.45;;;8.70;99.90;;;;;;4985920;28;20505;-39
2022/11/25 08:26:26;;;;;;;9.18;2.60;;;8.70;99.90;;;;;;5002153;28;20045;-39
2022/11/25 08:28:52;;;;;;;8.23;3.10;;;8.70;99.90;;;;;;4982879;28;20462;-40
2022/11/25 08:31:24;;;;;;;6.07;2.88;;;8.80;99.90;;;;;;4990053;28;20109;-40
2022/11/25 08:33:50;;;;;;;8.57;2.90;;;8.80;99.90;;;;;;4994316;28;20077;-40
2022/11/25 08:36:16;;;;;;;7.65;2.40;;;8.80;99.90;;;;;;4993433;28;20518;-40
2022/11/25 08:38:43;;;;;;;12.38;3.22;;;8.80;99.90;;;;;;4990776;28;20490;-40
2022/11/25 08:41:15;;;;;;;7.10;2.70;;;8.80;99.90;;;;;;5003257;28;20356;-36
2022/11/25 08:43:41;;;;;;;11.05;2.90;;;8.90;99.90;;;;;;4997101;28;20033;-41
2022/11/25 08:46:15;;;;;;;9.20;2.97;;;8.90;99.90;;;;;;4994316;28;20390;-34
2022/11/25 08:48:41;;;;;;;9.32;3.28;;;9.00;99.90;;;;;;4975730;28;20478;-33
2022/11/25 08:51:12;;;;;;;5.82;2.90;;;9.00;99.90;;;;;;4993353;28;20041;-33
2022/11/25 08:53:38;;;;;;;7.72;2.53;;;9.00;99.90;;;;;;4990573;28;20022;-35
2022/11/25 08:56:08;;;;;;;11.05;2.67;;;9.00;99.90;;;;;;4999099;28;20446;-30
2022/11/25 08:58:34;;;;;;;4.40;2.33;;;9.00;99.90;;;;;;4998404;28;20233;-37
2022/11/25 09:01:01;;;;;;;8.57;2.85;;;9.00;99.90;;;;;;4992801;28;20535;-33
2022/11/25 09:03:30;;;;;;;8.13;3.22;;;9.00;99.90;;;;;;4991632;28;20109;-31
2022/11/25 09:05:56;;;;;;;6.03;2.38;;;9.00;99.90;;;;;;4973959;28;20054;-34
2022/11/25 09:08:22;;;;;;;5.90;3.10;;;9.10;99.90;;;;;;4985749;28;20117;-32
2022/11/25 09:10:47;;;;;;;6.75;2.67;;;9.10;99.90;;;;;;4985886;28;20026;-35
2022/11/25 09:13:13;;;;;;;13.02;2.50;;;9.10;99.90;;;;;;4993879;28;20497;-37
2022/11/25 09:15:38;;;;;;;7.60;2.33;;;9.10;99.90;;;;;;4993553;28;20088;-35
2022/11/25 09:18:07;;;;;;;9.70;2.47;;;9.10;99.90;;;;;;4992210;28;20133;-33
2022/11/25 09:20:33;;;;;;;9.70;2.78;;;9.20;99.90;;;;;;4990727;28;20520;-38
2022/11/25 09:23:01;;;;;;;3.08;1.88;;;9.20;99.90;;;;;;4991090;28;20462;-36
2022/11/25 09:25:27;;;;;;;8.07;2.67;;;9.30;99.90;;;;;;4985780;28;20053;-37
2022/11/25 09:27:54;;;;;;;5.43;3.08;;;9.30;99.90;;;;;;4966967;28;20403;-33
2022/11/25 09:30:19;;;;;;;5.18;2.17;;;9.40;99.90;;;;;;4990977;28;20524;-38
2022/11/25 09:32:48;;;;;;;6.07;2.00;;;9.40;99.90;;;;;;4986104;28;20053;-33
2022/11/25 09:35:14;;;;;;;12.48;2.40;;;9.40;99.90;;;;;;4993715;28;20493;-42
2022/11/25 09:37:40;;;;;;;6.57;2.92;;;9.40;99.90;;;;;;4991084;28;20093;-33
2022/11/25 09:40:18;;;;;;;5.20;2.22;;;9.50;99.90;;;;;;4993268;28;20431;-39
2022/11/25 09:46:41;;;;;;;14.32;2.13;;;9.60;99.90;;;;;;4899975;29;20056;-32
2022/11/25 09:49:37;;;;;;;6.90;2.05;;;9.60;99.90;;;;;;4912685;29;20051;-33
2022/11/25 09:52:25;;;;;;;9.52;2.33;;;9.70;99.90;;;;;;4984439;28;20106;-37
2022/11/25 09:55:05;;;;;;;12.95;2.35;;;9.80;99.90;;;;;;4992443;28;20046;-41
2022/11/25 09:58:06;;;;;;;7.50;2.03;;;9.90;99.90;;;;;;4990012;28;20581;-42
2022/11/25 10:00:41;;;;;;;7.60;2.17;;;9.90;99.90;;;;;;4917182;28;20127;-41
2022/11/25 10:03:36;;;;;;;8.00;1.70;;;10.00;99.90;;;;;;4983315;28;20490;-42
2022/11/25 10:06:23;;;;;;;6.13;1.67;;;10.00;99.90;;;;;;4988404;28;20035;-41
2022/11/25 10:08:56;;;;;;;5.78;1.70;;;10.10;99.90;;;;;;4993425;28;20536;-41
2022/11/25 10:11:48;;;;;;;10.30;1.58;;;10.10;99.90;;;;;;4988432;28;20486;-49
2022/11/25 10:14:28;;;;;;;4.32;2.50;;;10.20;99.90;;;;;;4987509;28;20027;-34
2022/11/25 10:17:09;;;;;;;7.80;1.80;;;10.30;99.90;;;;;;4987304;28;20569;-36
2022/11/25 10:19:37;;;;;;;12.48;2.53;;;10.30;99.90;;;;;;4989935;28;20048;-39
2022/11/25 10:22:21;;;;;;;4.82;2.13;;;10.30;99.90;;;;;;4991826;28;20363;-35
2022/11/25 10:24:47;;;;;;;12.18;2.13;;;10.40;99.90;;;;;;4998206;28;20544;-38
2022/11/25 10:27:23;;;;;;;8.15;2.20;;;10.40;99.90;;;;;;4988979;28;20419;-36
2022/11/25 10:30:15;;;;;;;9.05;2.13;;;10.40;99.90;;;;;;4988596;28;20101;-37
2022/11/25 10:32:46;;;;;;;7.10;2.50;;;10.50;99.90;;;;;;4986208;28;20038;-39
2022/11/25 10:35:23;;;;;;;10.85;2.67;;;10.50;99.90;;;;;;4983724;28;20502;-33
2022/11/25 10:37:53;;;;;;;12.70;2.97;;;10.50;99.90;;;;;;4986533;28;20506;-32
2022/11/25 10:40:19;;;;;;;7.60;2.13;;;10.50;99.90;;;;;;4993708;28;20026;-34
2022/11/25 10:42:45;;;;;;;7.43;2.40;;;10.60;99.90;;;;;;4991652;28;20030;-37
2022/11/25 10:45:11;;;;;;;6.75;2.35;;;10.60;99.90;;;;;;4984753;28;20394;-35
2022/11/25 10:48:07;;;;;;;11.07;2.13;;;10.70;99.90;;;;;;4992362;28;20395;-40
2022/11/25 10:50:47;;;;;;;7.20;2.53;;;10.70;99.90;;;;;;4988350;28;20795;-35
2022/11/25 10:53:19;;;;;;;8.75;2.15;;;10.70;99.90;;;;;;4992677;28;20538;-37
2022/11/25 10:56:04;;;;;;;8.57;3.25;;;10.80;99.90;;;;;;4994497;28;20072;-36
2022/11/25 10:58:31;;;;;;;7.78;2.25;;;10.90;99.90;;;;;;4990203;28;20030;-32
2022/11/25 11:01:22;;;;;;;7.73;3.00;;;11.00;99.90;;;;;;4995127;28;20031;-34
2022/11/25 11:03:53;;;;;;;9.88;3.97;;;11.00;99.90;;;;;;5001631;28;20277;-39
2022/11/25 11:06:37;;;;;;;8.88;3.30;;;11.00;99.90;;;;;;4998934;28;20040;-38
2022/11/25 11:09:03;;;;;;;6.45;2.25;;;11.10;99.90;;;;;;4978541;28;20061;-35
2022/11/25 11:11:30;;;;;;;7.10;2.70;;;11.10;99.90;;;;;;4999716;28;20041;-35
2022/11/25 11:14:19;;;;;;;9.15;2.90;;;11.20;99.90;;;;;;4991661;28;20430;-38
2022/11/25 11:16:55;;;;;;;6.90;1.52;;;11.20;99.90;;;;;;4983999;28;20482;-35
2022/11/25 11:19:24;;;;;;;7.50;2.30;;;11.20;99.90;;;;;;4990362;28;20121;-37
2022/11/25 11:21:50;;;;;;;6.53;1.70;;;11.30;99.90;;;;;;4988858;28;20532;-41
2022/11/25 11:24:25;;;;;;;8.15;1.92;;;11.30;99.90;;;;;;4990496;28;20044;-36
2022/11/25 11:27:02;;;;;;;7.50;1.80;;;11.30;99.90;;;;;;4986298;28;20482;-40
2022/11/25 11:29:28;;;;;;;8.25;1.88;;;11.40;99.90;;;;;;4991367;28;20038;-36
2022/11/25 11:31:59;;;;;;;3.95;1.88;;;11.40;99.90;;;;;;4989684;28;20018;-33
2022/11/25 11:34:33;;;;;;;7.47;2.10;;;11.50;99.90;;;;;;4995567;28;20089;-38
2022/11/25 11:37:21;;;;;;;6.63;2.20;;;11.60;99.90;;;;;;4995248;28;20027;-38
2022/11/25 11:40:24;;;;;;;9.43;2.03;;;11.70;99.90;;;;;;5001445;28;20609;-34
2022/11/25 11:43:23;;;;;;;6.88;1.42;;;11.80;99.90;;;;;;4980398;28;20029;-32
2022/11/25 11:46:08;;;;;;;3.53;1.27;;;11.80;99.90;;;;;;4989723;28;20081;-38
2022/11/25 11:48:52;;;;;;;12.27;2.13;;;11.80;99.90;;;;;;4989418;28;20481;-38
2022/11/25 11:51:37;;;;;;;6.45;1.70;;;11.90;99.90;;;;;;4996909;28;20038;-35
2022/11/25 11:54:34;;;;;;;8.73;1.80;;;11.90;99.90;;;;;;4991856;28;20894;-39
2022/11/25 11:57:04;;;;;;;7.95;1.58;;;12.00;99.90;;;;;;4991902;28;20035;-39
2022/11/25 11:59:50;;;;;;;10.25;1.75;;;12.00;99.90;;;;;;4977324;28;20057;-39
2022/11/25 12:02:25;;;;;;;8.30;1.65;;;12.00;99.90;;;;;;4985609;28;20030;-39
2022/11/25 12:05:12;;;;;;;6.30;2.08;;;12.10;99.90;;;;;;4989677;28;20165;-39
2022/11/25 12:08:07;;;;;;;11.05;1.65;;;12.30;99.90;;;;;;4992937;28;20478;-38
2022/11/25 12:10:52;;;;;;;3.45;1.27;;;12.50;99.90;;;;;;4989637;28;20386;-35
2022/11/25 12:13:47;;;;;;;6.72;1.77;;;12.60;99.90;;;;;;4994580;28;20030;-34
2022/11/25 12:16:44;;;;;;;7.03;1.65;;;12.80;99.90;;;;;;4991658;28;20033;-35
2022/11/25 12:19:22;;;;;;;7.25;1.13;;;12.90;99.90;;;;;;4971628;28;20054;-42
2022/11/25 12:21:53;;;;;;;11.73;1.33;;;12.90;99.90;;;;;;4988770;28;20072;-34
2022/11/25 12:24:37;;;;;;;8.23;1.85;;;12.90;99.90;;;;;;4981330;28;20045;-37
2022/11/25 12:27:15;;;;;;;7.93;1.65;;;12.90;99.90;;;;;;4986478;28;20037;-38
2022/11/25 12:29:56;;;;;;;10.70;1.65;;;12.90;99.90;;;;;;4983398;28;20482;-37
2022/11/25 12:32:37;;;;;;;9.77;2.42;;;12.90;99.90;;;;;;4992614;28;20029;-40
2022/11/25 12:35:09;;;;;;;12.48;1.92;;;12.90;99.90;;;;;;4984640;28;20135;-42
2022/11/25 12:37:56;;;;;;;7.78;2.40;;;12.90;99.90;;;;;;4994476;28;20069;-34
2022/11/25 12:40:37;;;;;;;7.72;1.48;;;12.80;99.90;;;;;;4994769;28;20109;-38
2022/11/25 12:43:22;;;;;;;6.40;1.42;;;12.70;99.90;;;;;;5002595;28;20474;-37
2022/11/25 12:45:57;;;;;;;7.15;1.38;;;12.60;99.90;;;;;;4991138;28;20038;-37
2022/11/25 12:48:23;;;;;;;10.45;1.80;;;12.60;99.90;;;;;;4992319;28;20026;-32
2022/11/25 12:51:05;;;;;;;13.43;1.27;;;12.50;99.90;;;;;;4988205;28;20391;-42
2022/11/25 12:53:45;;;;;;;4.68;1.38;;;12.50;99.90;;;;;;4984398;28;20097;-40
2022/11/25 12:56:23;;;;;;;10.73;1.67;;;12.50;99.90;;;;;;4984588;28;20034;-38
2022/11/25 12:59:17;;;;;;;8.52;1.73;;;12.50;99.90;;;;;;4986254;28;20470;-40
2022/11/25 13:02:12;;;;;;;9.82;1.73;;;12.50;99.90;;;;;;4983840;28;20110;-58
2022/11/25 13:04:59;;;;;;;18.90;2.20;;;12.50;99.90;;;;;;4983583;28;20031;-35
2022/11/25 13:07:44;;;;;;;6.75;1.98;;;12.40;99.90;;;;;;4986843;28;20138;-41
2022/11/25 13:10:35;;;;;;;15.65;2.08;;;12.40;99.90;;;;;;4984552;28;20561;-39
2022/11/25 13:13:25;;;;;;;14.50;1.50;;;12.50;99.90;;;;;;4985749;28;20122;-38
2022/11/25 13:15:53;;;;;;;8.88;1.67;;;12.50;99.90;;;;;;4983051;28;20413;-32
2022/11/25 13:18:22;;;;;;;10.00;1.73;;;12.40;99.90;;;;;;4983737;28;20126;-39